Time;durP1;ratioP1;P1;durP2;ratioP2;P2;SDS_P1;SDS_P2;PMS_P1;PMS_P2;Temp;Humidity;BMP_temperature;BMP_pressure;BME280_temperature;BME280_humidity;BME280_pressure;Samples;Min_cycle;Max_cycle;Signal;HPM_P1;HPM_P2
2023/02/01 00:01:42;;;;;;;52.28;19.55;;;;;;;2.87;100.00;97567.53;5040419;28;20043;-79
2023/02/01 00:04:08;;;;;;;36.42;14.25;;;;;;;2.94;100.00;97553.22;5040533;28;20025;-80
2023/02/01 00:06:33;;;;;;;41.65;16.08;;;;;;;2.98;100.00;97545.16;5043438;28;20426;-80
2023/02/01 00:08:59;;;;;;;25.35;10.02;;;;;;;3.01;100.00;97545.06;5045487;28;20078;-80
2023/02/01 00:11:25;;;;;;;59.65;23.38;;;;;;;3.07;100.00;97544.00;5069482;28;20025;-80
2023/02/01 00:13:51;;;;;;;30.00;13.65;;;;;;;2.99;100.00;97546.88;5054798;28;20028;-80
2023/02/01 00:16:22;;;;;;;24.00;10.82;;;;;;;3.04;100.00;97539.69;5051951;28;20023;-80
2023/02/01 00:18:49;;;;;;;18.02;9.18;;;;;;;2.98;100.00;97549.56;5055631;28;20051;-80
2023/02/01 00:21:17;;;;;;;27.13;11.80;;;;;;;2.91;100.00;97550.66;5064745;28;20059;-79
2023/02/01 00:23:43;;;;;;;20.98;10.00;;;;;;;2.94;100.00;97547.94;5068422;28;20160;-79
2023/02/01 00:26:25;;;;;;;20.52;8.63;;;;;;;2.93;100.00;97552.34;5076507;28;20513;-79
2023/02/01 00:28:51;;;;;;;14.40;6.53;;;;;;;2.91;100.00;97548.03;5059760;28;20038;-79
2023/02/01 00:31:16;;;;;;;15.70;7.30;;;;;;;2.91;100.00;97540.09;5055796;28;20474;-80
2023/02/01 00:33:42;;;;;;;24.45;10.35;;;;;;;2.82;100.00;97530.72;5048208;28;20510;-80
2023/02/01 00:36:08;;;;;;;25.17;10.82;;;;;;;2.92;100.00;97547.13;5050535;28;20043;-80
2023/02/01 00:38:36;;;;;;;29.17;12.10;;;;;;;2.88;100.00;97542.84;5045133;28;20039;-79
2023/02/01 00:41:10;;;;;;;61.03;24.38;;;;;;;2.91;100.00;97540.97;5039516;28;20119;-79
2023/02/01 00:43:36;;;;;;;33.22;13.38;;;;;;;2.80;100.00;97545.72;5072841;28;20548;-80
2023/02/01 00:46:02;;;;;;;31.48;12.35;;;;;;;2.67;100.00;97534.69;5047720;28;20033;-80
2023/02/01 00:48:28;;;;;;;23.70;10.02;;;;;;;2.69;100.00;97534.63;5048586;28;20021;-80
2023/02/01 00:50:53;;;;;;;13.70;6.80;;;;;;;2.64;100.00;97532.16;5046785;28;20036;-80
2023/02/01 00:53:19;;;;;;;10.65;4.90;;;;;;;2.68;100.00;97559.31;5063841;28;20020;-80
2023/02/01 00:55:46;;;;;;;11.95;5.10;;;;;;;2.62;100.00;97554.22;5043933;28;20028;-80
2023/02/01 00:58:11;;;;;;;8.93;4.10;;;;;;;2.55;100.00;97555.31;5045786;28;20059;-80
2023/02/01 01:00:37;;;;;;;9.00;4.10;;;;;;;2.51;100.00;97558.97;5055251;28;20077;-79
2023/02/01 01:03:17;;;;;;;8.75;4.03;;;;;;;2.41;100.00;97553.09;5054121;28;20052;-79
2023/02/01 01:05:46;;;;;;;12.75;5.28;;;;;;;2.36;100.00;97554.13;5041154;28;20024;-80
2023/02/01 01:08:12;;;;;;;8.88;4.53;;;;;;;2.30;100.00;97549.03;5047348;28;20028;-80
2023/02/01 01:10:38;;;;;;;5.55;3.00;;;;;;;2.27;100.00;97539.44;5051536;28;20119;-80
2023/02/01 01:13:03;;;;;;;9.63;3.85;;;;;;;2.39;100.00;97532.94;5048057;28;20024;-79
2023/02/01 01:15:29;;;;;;;8.45;4.18;;;;;;;2.41;100.00;97523.19;5046454;28;20024;-80
2023/02/01 01:17:54;;;;;;;7.75;3.63;;;;;;;2.43;100.00;97513.47;5054453;28;20035;-80
2023/02/01 01:20:21;;;;;;;5.18;2.70;;;;;;;2.46;100.00;97505.47;5049568;28;20116;-81
2023/02/01 01:22:47;;;;;;;8.23;3.72;;;;;;;2.39;100.00;97499.50;5071594;28;20048;-80
2023/02/01 01:25:13;;;;;;;10.95;4.20;;;;;;;2.45;100.00;97507.22;5075275;28;20501;-80
2023/02/01 01:27:38;;;;;;;12.05;4.10;;;;;;;2.40;100.00;97519.69;5054561;28;20107;-80
2023/02/01 01:30:04;;;;;;;8.40;4.07;;;;;;;2.26;100.00;97521.88;5049950;28;20028;-79
2023/02/01 01:32:30;;;;;;;10.50;3.60;;;;;;;2.24;100.00;97522.84;5059217;28;20106;-80
2023/02/01 01:34:55;;;;;;;8.13;4.47;;;;;;;2.16;100.00;97520.41;5058567;28;20034;-80
2023/02/01 01:37:21;;;;;;;9.13;4.45;;;;;;;2.11;100.00;97517.94;5047477;28;20035;-80
2023/02/01 01:39:46;;;;;;;8.07;4.20;;;;;;;2.09;100.00;97519.72;5061279;28;20035;-81
2023/02/01 01:42:13;;;;;;;10.35;3.38;;;;;;;2.05;100.00;97522.50;5040479;28;20021;-80
2023/02/01 01:45:03;;;;;;;6.93;3.30;;;;;;;1.99;100.00;97533.25;5055286;28;20019;-79
2023/02/01 01:47:33;;;;;;;9.88;3.88;;;;;;;1.94;100.00;97529.88;5045970;28;20083;-81
2023/02/01 01:49:59;;;;;;;5.20;2.72;;;;;;;1.88;100.00;97525.63;5050916;28;20090;-79
2023/02/01 01:52:24;;;;;;;6.65;3.28;;;;;;;1.85;100.00;97536.25;5044968;28;20530;-79
2023/02/01 01:54:51;;;;;;;4.80;2.55;;;;;;;1.79;100.00;97535.53;5075111;28;20016;-79
2023/02/01 01:57:25;;;;;;;7.13;3.92;;;;;;;1.72;100.00;97534.88;5054731;28;20066;-80
2023/02/01 02:00:06;;;;;;;7.30;4.30;;;;;;;1.55;100.00;97532.69;5069182;28;20082;-79
2023/02/01 02:02:32;;;;;;;11.52;5.20;;;;;;;1.45;100.00;97536.47;5054154;28;20041;-80
2023/02/01 02:04:57;;;;;;;9.05;4.78;;;;;;;1.36;100.00;97536.69;5044660;28;20516;-80
2023/02/01 02:07:28;;;;;;;10.45;4.60;;;;;;;1.21;100.00;97536.22;5072724;28;20094;-79
2023/02/01 02:09:54;;;;;;;6.30;3.40;;;;;;;1.12;100.00;97531.19;5058774;28;20023;-79
2023/02/01 02:12:20;;;;;;;8.00;3.55;;;;;;;1.08;100.00;97551.47;5049867;28;20099;-79
2023/02/01 02:14:45;;;;;;;5.63;2.90;;;;;;;0.96;100.00;97546.50;5058587;28;20048;-79
2023/02/01 02:17:56;;;;;;;6.90;3.10;;;;;;;1.00;100.00;97551.66;5054287;28;20020;-79
2023/02/01 02:20:51;;;;;;;6.45;3.60;;;;;;;0.91;100.00;97548.38;5036030;28;20036;-79
2023/02/01 02:23:23;;;;;;;6.00;3.13;;;;;;;0.86;100.00;97555.53;5052532;28;20060;-78
2023/02/01 02:25:54;;;;;;;6.18;2.75;;;;;;;0.79;100.00;97553.94;5058246;28;20044;-80
2023/02/01 02:28:48;;;;;;;4.35;2.97;;;;;;;0.68;100.00;97556.81;5059014;28;20035;-79
2023/02/01 02:31:41;;;;;;;5.28;3.20;;;;;;;0.66;100.00;97555.13;5074010;28;20377;-78
2023/02/01 02:34:20;;;;;;;9.38;3.10;;;;;;;0.62;100.00;97551.69;5040068;28;20060;-79
2023/02/01 02:36:52;;;;;;;8.15;3.20;;;;;;;0.65;100.00;97556.88;5058508;28;20027;-79
2023/02/01 02:39:22;;;;;;;;;;;;;;;0.80;100.00;97555.69;5050161;28;20028;-78
2023/02/01 02:48:16;;;;;;;9.32;4.07;;;;;;;0.80;100.00;97526.75;5059991;28;20035;-79
2023/02/01 03:04:35;;;;;;;4.57;2.78;;;;;;;1.06;100.00;97538.34;5073087;28;20077;-80
2023/02/01 03:07:33;;;;;;;13.32;3.50;;;;;;;1.19;100.00;97549.44;5054488;28;20114;-80
2023/02/01 03:10:04;;;;;;;10.32;4.60;;;;;;;1.16;100.00;97552.16;5065074;28;20492;-78
2023/02/01 03:15:18;;;;;;;7.07;3.55;;;;;;;1.27;100.00;97579.09;5067971;28;20112;-79
2023/02/01 03:17:45;;;;;;;8.82;4.03;;;;;;;1.28;100.00;97580.84;5049663;28;20048;-80
2023/02/01 03:20:13;;;;;;;11.45;4.10;;;;;;;1.28;100.00;97580.84;5065245;28;20024;-80
2023/02/01 03:22:39;;;;;;;6.75;3.40;;;;;;;1.29;100.00;97574.66;5040701;28;20119;-80
2023/02/01 03:25:10;;;;;;;5.88;3.45;;;;;;;1.41;100.00;97594.56;5036541;28;20033;-80
2023/02/01 03:27:41;;;;;;;12.27;6.25;;;;;;;1.33;100.00;97594.75;5045951;28;20028;-80
2023/02/01 03:30:13;;;;;;;13.50;6.85;;;;;;;1.39;100.00;97597.22;5056223;28;20421;-79
2023/02/01 03:33:00;;;;;;;19.95;7.68;;;;;;;1.40;100.00;97598.97;5067249;28;20035;-80
2023/02/01 03:35:28;;;;;;;18.15;8.18;;;;;;;1.45;100.00;97599.69;5055069;28;20032;-79
2023/02/01 03:38:08;;;;;;;22.60;8.20;;;;;;;1.51;100.00;97590.78;5083580;28;20028;-78
2023/02/01 03:40:35;;;;;;;24.45;9.93;;;;;;;1.52;100.00;97601.28;5048789;28;20106;-79
2023/02/01 03:43:02;;;;;;;24.58;11.93;;;;;;;1.53;100.00;97603.03;5064206;28;20469;-79
2023/02/01 03:45:33;;;;;;;23.95;11.30;;;;;;;1.60;100.00;97588.75;5052505;28;20019;-79
2023/02/01 03:48:00;;;;;;;25.03;11.43;;;;;;;1.60;100.00;97575.59;5040519;28;20498;-80
2023/02/01 03:50:26;;;;;;;18.80;8.90;;;;;;;1.59;100.00;97559.81;5056187;28;20111;-79
2023/02/01 03:52:56;;;;;;;21.13;10.48;;;;;;;1.53;100.00;97550.31;5072715;28;20032;-78
2023/02/01 03:55:22;;;;;;;22.20;10.10;;;;;;;1.53;100.00;97555.59;5060149;28;20046;-79
2023/02/01 03:57:55;;;;;;;14.10;6.35;;;;;;;1.54;100.00;97546.75;5076808;28;20030;-80
2023/02/01 04:00:25;;;;;;;30.77;9.93;;;;;;;1.58;100.00;97552.81;5049503;28;20025;-79
2023/02/01 04:02:52;;;;;;;31.42;11.15;;;;;;;1.61;100.00;97552.75;5061318;28;20051;-79
2023/02/01 04:05:17;;;;;;;27.50;10.95;;;;;;;1.49;100.00;97531.97;5055393;28;20151;-79
2023/02/01 04:07:43;;;;;;;26.27;10.63;;;;;;;1.56;100.00;97538.81;5043342;28;20551;-80
2023/02/01 04:10:09;;;;;;;14.00;6.00;;;;;;;1.54;100.00;97536.22;5037123;28;20024;-79
2023/02/01 04:12:35;;;;;;;13.48;6.05;;;;;;;1.58;100.00;97527.34;5044556;28;20511;-79
2023/02/01 04:15:01;;;;;;;14.25;6.20;;;;;;;1.49;100.00;97518.81;5044596;28;20103;-77
2023/02/01 04:17:26;;;;;;;17.08;7.07;;;;;;;1.49;100.00;97534.63;5048069;28;20060;-77
2023/02/01 04:19:52;;;;;;;14.88;7.07;;;;;;;1.37;100.00;97533.19;5037955;28;20087;-77
2023/02/01 04:22:17;;;;;;;21.70;9.25;;;;;;;1.30;100.00;97528.97;5037556;28;20036;-78
2023/02/01 04:24:43;;;;;;;18.10;7.70;;;;;;;1.32;100.00;97527.16;5043767;28;20067;-78
2023/02/01 04:27:08;;;;;;;25.52;10.30;;;;;;;1.31;100.00;97546.50;5053143;28;20028;-79
2023/02/01 04:29:34;;;;;;;16.90;6.93;;;;;;;1.17;100.00;97556.50;5048016;28;20048;-78
2023/02/01 04:31:59;;;;;;;17.17;8.07;;;;;;;1.17;100.00;97568.84;5053389;28;20036;-78
2023/02/01 04:34:26;;;;;;;15.63;7.82;;;;;;;1.11;100.00;97567.19;5063049;28;20036;-79
2023/02/01 04:36:51;;;;;;;14.27;6.80;;;;;;;1.23;100.00;97576.59;5048107;28;20040;-77
2023/02/01 04:39:17;;;;;;;13.27;5.90;;;;;;;1.31;100.00;97567.59;5047340;28;20024;-77
2023/02/01 04:41:43;;;;;;;15.38;6.68;;;;;;;1.39;100.00;97546.28;5048884;28;20405;-79
2023/02/01 04:44:18;;;;;;;9.18;4.63;;;;;;;1.52;100.00;97531.91;5043804;28;20021;-78
2023/02/01 04:46:46;;;;;;;13.32;5.72;;;;;;;1.52;100.00;97524.88;5044614;28;20565;-76
2023/02/01 04:49:13;;;;;;;51.80;16.00;;;;;;;1.47;100.00;97523.25;5044047;28;20029;-77
2023/02/01 04:51:40;;;;;;;51.58;17.75;;;;;;;1.48;100.00;97528.47;5048123;28;20032;-76
2023/02/01 04:54:06;;;;;;;58.17;19.55;;;;;;;1.48;100.00;97531.09;5040814;28;20036;-76
2023/02/01 04:56:31;;;;;;;49.25;17.55;;;;;;;1.59;100.00;97530.84;5048461;28;20028;-77
2023/02/01 04:58:57;;;;;;;39.97;14.98;;;;;;;1.66;100.00;97534.19;5045679;28;20036;-77
2023/02/01 05:01:24;;;;;;;15.57;6.95;;;;;;;1.83;100.00;97529.28;5043188;28;20097;-77
2023/02/01 05:03:50;;;;;;;17.13;6.65;;;;;;;1.95;100.00;97523.69;5047839;28;20108;-77
2023/02/01 05:06:15;;;;;;;20.35;7.43;;;;;;;1.92;100.00;97516.72;5051514;28;20025;-77
2023/02/01 05:08:41;;;;;;;17.23;5.88;;;;;;;2.00;100.00;97505.97;5051437;28;20016;-77
2023/02/01 05:13:47;;;;;;;17.02;7.25;;;;;;;2.16;100.00;97525.69;5045487;28;20060;-77
2023/02/01 05:13:52;;;;;;;45.58;17.75;;;;;;;2.14;100.00;97522.25;5062776;28;20028;-76
2023/02/01 05:16:17;;;;;;;45.55;17.90;;;;;;;2.17;100.00;97522.16;5063808;28;20111;-77
2023/02/01 05:18:43;;;;;;;24.02;10.40;;;;;;;2.22;100.00;97520.22;5054918;28;20115;-76
2023/02/01 05:21:09;;;;;;;33.25;13.57;;;;;;;2.32;100.00;97524.34;5047876;28;20093;-76
2023/02/01 05:24:09;;;;;;;27.20;11.15;;;;;;;2.19;100.00;97520.31;5055289;28;20123;-76
2023/02/01 05:26:20;;;;;;;21.48;9.63;;;;;;;2.08;100.00;97533.84;5062402;28;20399;-78
2023/02/01 05:28:45;;;;;;;21.88;9.38;;;;;;;2.13;100.00;97538.97;5055640;28;20032;-78
2023/02/01 05:31:11;;;;;;;28.70;10.52;;;;;;;2.06;100.00;97529.53;5041227;28;20028;-78
2023/02/01 05:33:37;;;;;;;17.02;8.68;;;;;;;2.12;100.00;97543.38;5065267;28;20017;-76
2023/02/01 05:36:03;;;;;;;19.52;9.88;;;;;;;2.09;100.00;97542.63;5056055;28;20089;-75
2023/02/01 05:38:29;;;;;;;24.25;11.65;;;;;;;2.14;100.00;97554.78;5054162;28;20109;-76
2023/02/01 05:40:55;;;;;;;20.58;10.85;;;;;;;2.09;100.00;97555.81;5050215;28;20483;-76
2023/02/01 05:43:21;;;;;;;25.75;10.50;;;;;;;2.05;100.00;97559.44;5042352;28;20034;-76
2023/02/01 05:45:47;;;;;;;28.13;13.77;;;;;;;2.02;100.00;97549.84;5057743;28;20111;-78
2023/02/01 05:48:12;;;;;;;26.23;13.07;;;;;;;2.07;100.00;97552.34;5049808;28;20476;-77
2023/02/01 05:50:43;;;;;;;27.77;13.38;;;;;;;2.05;100.00;97560.31;5054069;28;20069;-78
2023/02/01 05:53:09;;;;;;;22.35;10.27;;;;;;;2.08;100.00;97565.50;5049534;28;20031;-76
2023/02/01 05:55:36;;;;;;;30.55;13.60;;;;;;;2.22;100.00;97559.81;5049841;28;20487;-78
2023/02/01 05:58:02;;;;;;;70.07;24.67;;;;;;;2.18;100.00;97566.94;5061908;28;20028;-77
2023/02/01 06:00:27;;;;;;;35.50;17.50;;;;;;;2.24;100.00;97575.59;5043411;28;20120;-77
2023/02/01 06:02:53;;;;;;;31.70;14.90;;;;;;;2.34;100.00;97582.34;5067786;28;20049;-75
2023/02/01 06:05:18;;;;;;;34.47;13.68;;;;;;;2.38;100.00;97557.59;5044670;28;20090;-78
2023/02/01 06:07:44;;;;;;;28.88;11.90;;;;;;;2.46;100.00;97552.97;5046503;28;20022;-78
2023/02/01 06:10:12;;;;;;;27.40;11.73;;;;;;;2.60;100.00;97564.84;5045322;28;20032;-76
2023/02/01 06:12:38;;;;;;;16.98;8.38;;;;;;;2.61;100.00;97548.09;5035002;28;20028;-77
2023/02/01 06:15:04;;;;;;;14.90;7.13;;;;;;;2.58;100.00;97552.59;5046109;28;20372;-77
2023/02/01 06:17:29;;;;;;;27.27;12.27;;;;;;;2.56;100.00;97552.63;5062196;28;20028;-76
2023/02/01 06:19:55;;;;;;;24.42;10.52;;;;;;;2.70;100.00;97571.56;5045242;28;20024;-77
2023/02/01 06:22:21;;;;;;;20.48;9.48;;;;;;;2.86;100.00;97569.28;5067685;28;20538;-76
2023/02/01 06:24:47;;;;;;;20.25;9.60;;;;;;;2.84;100.00;97554.41;5045781;28;20064;-76
2023/02/01 06:27:13;;;;;;;37.65;15.77;;;;;;;2.88;100.00;97574.53;5045789;28;20035;-77
2023/02/01 06:29:38;;;;;;;36.60;12.77;;;;;;;2.93;100.00;97562.91;5050178;28;20028;-77
2023/02/01 06:32:04;;;;;;;40.22;15.05;;;;;;;2.95;100.00;97570.81;5053223;28;20426;-78
2023/02/01 06:34:29;;;;;;;37.63;16.77;;;;;;;3.06;100.00;97581.88;5070742;28;20028;-76
2023/02/01 06:36:55;;;;;;;52.25;21.08;;;;;;;3.12;100.00;97572.00;5049713;28;20058;-78
2023/02/01 06:39:21;;;;;;;99.32;36.33;;;;;;;3.21;100.00;97579.63;5041100;28;20039;-76
2023/02/01 06:41:48;;;;;;;81.22;34.92;;;;;;;3.16;100.00;97575.41;5050475;28;20105;-77
2023/02/01 06:44:20;;;;;;;36.88;16.42;;;;;;;3.13;100.00;97586.06;5043736;28;20062;-77
2023/02/01 06:46:46;;;;;;;39.42;18.02;;;;;;;3.21;100.00;97578.75;5050263;28;20487;-79
2023/02/01 06:49:12;;;;;;;64.32;18.80;;;;;;;3.19;100.00;97588.50;5051942;28;20089;-80
2023/02/01 06:51:37;;;;;;;36.00;18.50;;;;;;;3.18;100.00;97590.28;5042046;28;20085;-74
2023/02/01 06:54:08;;;;;;;38.40;17.92;;;;;;;3.12;100.00;97584.34;5054274;28;20020;-78
2023/02/01 06:56:34;;;;;;;36.10;16.67;;;;;;;3.19;100.00;97596.44;5047096;28;20031;-76
2023/02/01 06:59:01;;;;;;;66.53;26.63;;;;;;;3.17;100.00;97596.47;5042152;28;20275;-83
2023/02/01 07:01:27;;;;;;;68.90;27.77;;;;;;;3.14;100.00;97593.06;5063858;28;20028;-79
2023/02/01 07:03:53;;;;;;;64.55;28.25;;;;;;;3.16;100.00;97596.53;5055001;28;20031;-81
2023/02/01 07:06:19;;;;;;;56.38;24.63;;;;;;;3.17;100.00;97592.97;5065118;28;20028;-79
2023/02/01 07:08:45;;;;;;;63.10;27.85;;;;;;;3.05;100.00;97578.38;5048503;28;20143;-79
2023/02/01 07:11:12;;;;;;;101.28;43.25;;;;;;;3.16;100.00;97607.09;5053031;28;20065;-80
2023/02/01 07:13:38;;;;;;;92.38;39.33;;;;;;;3.15;100.00;97621.22;5044462;28;20024;-80
2023/02/01 07:16:07;;;;;;;89.80;36.38;;;;;;;3.28;100.00;97627.84;5052577;28;20035;-79
2023/02/01 07:18:33;;;;;;;80.50;35.22;;;;;;;3.33;100.00;97633.84;5044226;28;20024;-81
2023/02/01 07:20:59;;;;;;;90.45;38.08;;;;;;;3.30;100.00;97628.66;5040207;28;20500;-80
2023/02/01 07:23:25;;;;;;;83.00;37.35;;;;;;;3.23;100.00;97619.22;5073557;28;20604;-80
2023/02/01 07:25:58;;;;;;;101.28;40.78;;;;;;;3.30;100.00;97631.31;5056405;28;20031;-80
2023/02/01 07:28:25;;;;;;;106.82;39.85;;;;;;;3.47;100.00;97622.84;5045757;28;20086;-80
2023/02/01 07:30:50;;;;;;;76.93;32.03;;;;;;;3.58;100.00;97611.00;5045109;28;20101;-80
2023/02/01 07:33:26;;;;;;;54.80;23.55;;;;;;;3.62;100.00;97607.34;5061762;28;20483;-81
2023/02/01 07:35:52;;;;;;;46.20;20.30;;;;;;;3.78;100.00;97624.41;5053772;28;20027;-74
2023/02/01 07:38:17;;;;;;;31.60;15.10;;;;;;;3.84;100.00;97655.94;5064420;28;20016;-74
2023/02/01 07:40:43;;;;;;;28.85;13.60;;;;;;;3.91;100.00;97645.19;5060790;28;20023;-80
2023/02/01 07:43:09;;;;;;;18.65;9.05;;;;;;;3.91;100.00;97650.47;5072479;28;20040;-74
2023/02/01 07:45:35;;;;;;;44.13;17.88;;;;;;;4.07;100.00;97676.34;5064645;28;20024;-78
2023/02/01 07:48:02;;;;;;;35.58;15.95;;;;;;;4.21;100.00;97687.34;5043947;28;20499;-77
2023/02/01 07:50:27;;;;;;;34.80;15.90;;;;;;;4.31;100.00;97674.59;5063072;28;20024;-76
2023/02/01 07:52:53;;;;;;;28.00;13.18;;;;;;;4.53;100.00;97665.00;5064514;28;20040;-75
2023/02/01 07:55:20;;;;;;;36.13;17.55;;;;;;;4.87;100.00;97664.63;5047298;28;20021;-75
2023/02/01 07:57:45;;;;;;;73.70;30.92;;;;;;;4.99;100.00;97657.97;5053798;28;20081;-74
2023/02/01 08:02:59;;;;;;;41.90;16.15;;;;;;;5.27;100.00;97635.66;5069105;28;20078;-74
2023/02/01 08:05:25;;;;;;;27.52;11.98;;;;;;;5.31;100.00;97637.25;5060004;28;20399;-80
2023/02/01 08:07:51;;;;;;;28.95;14.48;;;;;;;5.13;100.00;97619.44;5071470;28;20111;-77
2023/02/01 08:10:17;;;;;;;27.52;13.55;;;;;;;5.21;100.00;97617.34;5053020;28;20025;-77
2023/02/01 08:12:47;;;;;;;35.45;16.30;;;;;;;5.13;100.00;97611.47;5066590;28;20046;-78
2023/02/01 08:15:14;;;;;;;28.27;12.35;;;;;;;5.17;100.00;97612.22;5046738;28;20031;-78
2023/02/01 08:17:39;;;;;;;24.83;11.23;;;;;;;5.27;100.00;97618.88;5067558;28;20032;-78
2023/02/01 08:20:06;;;;;;;36.13;16.58;;;;;;;5.30;100.00;97614.31;5049828;28;20568;-78
2023/02/01 08:22:32;;;;;;;35.15;15.93;;;;;;;5.33;100.00;97605.38;5065449;28;20024;-77
2023/02/01 08:25:01;;;;;;;14.02;6.32;;;;;;;5.45;99.99;97603.09;5044551;28;20028;-78
2023/02/01 08:27:27;;;;;;;14.90;6.60;;;;;;;5.50;96.08;97600.25;5050217;28;20527;-78
2023/02/01 08:29:53;;;;;;;33.92;15.30;;;;;;;5.60;100.00;97609.53;5067229;28;20036;-77
2023/02/01 08:32:19;;;;;;;17.48;8.73;;;;;;;5.62;100.00;97602.41;5065474;28;20031;-75
2023/02/01 08:34:45;;;;;;;17.10;8.70;;;;;;;5.62;93.07;97594.44;5065004;28;20082;-75
2023/02/01 08:37:10;;;;;;;30.35;12.35;;;;;;;5.77;93.77;97588.50;5046187;28;20039;-75
2023/02/01 08:39:36;;;;;;;14.77;6.05;;;;;;;5.74;91.30;97599.25;5074252;28;20553;-74
2023/02/01 08:44:54;;;;;;;17.83;5.95;;;;;;;5.70;94.99;97602.94;5068623;28;20060;-75
2023/02/01 08:47:20;;;;;;;9.52;5.30;;;;;;;5.75;90.97;97605.41;5039344;28;20033;-75
2023/02/01 08:49:46;;;;;;;11.90;5.43;;;;;;;5.64;92.19;97602.31;5065659;28;20042;-75
2023/02/01 08:52:11;;;;;;;12.77;5.70;;;;;;;5.44;93.43;97608.47;5067969;28;20098;-75
2023/02/01 08:54:39;;;;;;;11.40;5.55;;;;;;;5.41;94.98;97613.91;5044879;28;20466;-75
2023/02/01 08:57:04;;;;;;;9.20;5.25;;;;;;;5.31;94.68;97620.47;5068832;28;20415;-75
2023/02/01 08:59:30;;;;;;;10.77;5.63;;;;;;;5.25;92.77;97615.44;5040788;28;20032;-75
2023/02/01 09:01:55;;;;;;;8.82;4.10;;;;;;;5.08;96.35;97624.03;5062216;28;20040;-74
2023/02/01 09:04:21;;;;;;;9.35;4.85;;;;;;;5.05;97.13;97617.97;5059229;28;20064;-77
2023/02/01 09:06:47;;;;;;;11.52;5.10;;;;;;;5.02;96.55;97610.16;5086138;28;20032;-75
2023/02/01 09:09:12;;;;;;;11.23;5.05;;;;;;;4.90;96.09;97604.41;5066992;28;20078;-75
2023/02/01 09:11:38;;;;;;;12.38;5.80;;;;;;;4.99;98.95;97618.22;5043466;28;20036;-76
2023/02/01 09:14:03;;;;;;;11.38;6.13;;;;;;;5.07;98.43;97613.50;5060961;28;20556;-75
2023/02/01 09:16:29;;;;;;;19.83;9.07;;;;;;;5.01;100.00;97609.31;5057972;28;20024;-75
2023/02/01 09:18:57;;;;;;;16.98;6.32;;;;;;;5.14;95.11;97586.69;5079443;28;20027;-74
2023/02/01 09:21:22;;;;;;;14.32;7.55;;;;;;;5.24;96.13;97598.66;5065018;28;20032;-74
2023/02/01 09:23:51;;;;;;;17.15;7.40;;;;;;;5.28;96.63;97600.25;5072461;28;20028;-75
2023/02/01 09:26:16;;;;;;;14.50;5.90;;;;;;;5.39;92.95;97597.16;5064552;28;20096;-75
2023/02/01 09:28:42;;;;;;;16.27;7.72;;;;;;;5.36;91.47;97590.19;5054631;28;20496;-74
2023/02/01 09:31:07;;;;;;;18.80;8.00;;;;;;;5.50;94.74;97602.91;5052667;28;20032;-74
2023/02/01 09:33:33;;;;;;;16.23;8.15;;;;;;;5.51;96.29;97607.28;5064888;28;20043;-77
2023/02/01 09:36:00;;;;;;;17.08;7.40;;;;;;;5.62;98.30;97609.50;5093704;28;20256;-79
2023/02/01 09:38:27;;;;;;;31.38;15.20;;;;;;;5.61;94.06;97598.00;5070268;28;20032;-78
2023/02/01 09:40:53;;;;;;;13.52;6.55;;;;;;;5.60;94.21;97585.66;5040494;28;20081;-79
2023/02/01 09:43:42;;;;;;;11.68;6.28;;;;;;;5.54;98.21;97588.56;5058089;28;20040;-79
2023/02/01 09:46:29;;;;;;;26.08;11.95;;;;;;;5.76;92.60;97573.50;5042328;28;20043;-79
2023/02/01 09:48:58;;;;;;;21.38;10.13;;;;;;;5.88;92.06;97567.69;5050789;28;20027;-78
2023/02/01 09:51:33;;;;;;;18.77;8.35;;;;;;;6.01;90.23;97560.06;5058811;28;20089;-78
2023/02/01 09:54:03;;;;;;;11.90;5.63;;;;;;;6.04;88.77;97554.63;5058583;28;20016;-78
2023/02/01 09:56:44;;;;;;;12.55;6.28;;;;;;;6.11;89.01;97552.56;5075118;28;20129;-79
2023/02/01 09:59:15;;;;;;;15.20;7.00;;;;;;;6.24;86.71;97551.97;5087930;28;20499;-79
2023/02/01 10:01:42;;;;;;;10.87;5.97;;;;;;;6.24;84.55;97528.06;5072228;28;20066;-79
2023/02/01 10:04:12;;;;;;;18.33;7.45;;;;;;;6.30;91.49;97551.69;5058150;28;20081;-80
2023/02/01 10:06:49;;;;;;;16.25;7.53;;;;;;;6.68;86.36;97546.38;5070652;28;20024;-80
2023/02/01 10:09:53;;;;;;;12.02;6.85;;;;;;;7.08;85.57;97551.53;5074546;28;20024;-80
2023/02/01 10:12:24;;;;;;;14.52;6.10;;;;;;;7.24;81.26;97533.91;5063913;28;20109;-80
2023/02/01 10:15:02;;;;;;;14.65;5.78;;;;;;;7.34;77.56;97518.38;5092366;28;20020;-80
2023/02/01 10:17:46;;;;;;;13.10;6.38;;;;;;;7.51;81.69;97539.66;5062726;28;20127;-79
2023/02/01 10:20:12;;;;;;;20.65;10.43;;;;;;;7.40;82.75;97537.56;5060530;28;20411;-79
2023/02/01 10:22:42;;;;;;;23.27;9.43;;;;;;;7.45;79.47;97519.53;5067244;28;20031;-79
2023/02/01 10:25:23;;;;;;;11.30;5.35;;;;;;;7.58;76.19;97511.81;5057859;28;20028;-79
2023/02/01 10:27:49;;;;;;;9.33;4.33;;;;;;;7.70;75.05;97503.19;5057717;28;21097;-80
2023/02/01 10:30:23;;;;;;;8.43;4.32;;;;;;;7.78;72.49;97492.16;5054453;28;20279;-80
2023/02/01 10:32:55;;;;;;;8.65;3.50;;;;;;;7.87;71.75;97491.69;5057694;28;20031;-79
2023/02/01 10:35:28;;;;;;;12.23;6.22;;;;;;;8.04;76.27;97510.28;5057732;28;20032;-80
2023/02/01 10:37:55;;;;;;;18.38;5.38;;;;;;;7.88;73.41;97498.72;5042031;28;20036;-80
2023/02/01 10:40:23;;;;;;;15.60;5.40;;;;;;;7.73;75.61;97492.38;5037769;28;20033;-78
2023/02/01 10:43:08;;;;;;;10.05;4.60;;;;;;;7.73;74.89;97496.84;5041319;28;20059;-79
2023/02/01 10:45:33;;;;;;;19.35;8.05;;;;;;;7.48;77.18;97498.09;5042256;28;20028;-79
2023/02/01 10:48:00;;;;;;;26.90;9.65;;;;;;;7.50;80.33;97512.22;5065211;28;20411;-77
2023/02/01 10:50:46;;;;;;;17.85;7.65;;;;;;;7.52;77.77;97498.81;5049929;28;20032;-77
2023/02/01 10:53:20;;;;;;;13.82;6.32;;;;;;;7.50;78.64;97496.25;5069531;28;20035;-78
2023/02/01 10:55:45;;;;;;;18.67;8.48;;;;;;;7.56;81.77;97511.91;5040209;28;20523;-79
2023/02/01 10:58:19;;;;;;;10.77;5.55;;;;;;;7.56;77.05;97484.41;5056930;28;20044;-77
2023/02/01 11:00:57;;;;;;;19.50;7.32;;;;;;;7.86;76.27;97493.47;5052265;28;20028;-78
2023/02/01 11:03:48;;;;;;;13.75;6.97;;;;;;;8.15;74.32;97484.81;5064220;28;20443;-78
2023/02/01 11:06:26;;;;;;;11.05;6.18;;;;;;;8.42;71.29;97471.84;5049325;28;20443;-78
2023/02/01 11:08:54;;;;;;;17.60;8.73;;;;;;;9.33;72.71;97497.81;5062179;28;20033;-77
2023/02/01 11:11:20;;;;;;;15.00;6.40;;;;;;;11.11;65.89;97505.47;5046624;28;20063;-77
2023/02/01 11:13:53;;;;;;;14.48;7.20;;;;;;;12.96;57.11;97503.44;5048193;28;20031;-73
2023/02/01 11:16:19;;;;;;;16.67;8.15;;;;;;;13.43;51.77;97465.94;5055945;28;20027;-73
2023/02/01 11:18:54;;;;;;;15.07;5.53;;;;;;;14.21;50.00;97455.47;5053421;28;20028;-81
2023/02/01 11:21:20;;;;;;;11.45;4.90;;;;;;;15.00;46.91;97443.75;5045507;28;20049;-81
2023/02/01 11:23:46;;;;;;;8.57;4.82;;;;;;;15.31;45.00;97416.00;5063597;28;20380;-81
2023/02/01 11:26:13;;;;;;;9.43;4.80;;;;;;;15.10;43.75;97407.00;5074190;28;20023;-81
2023/02/01 11:28:40;;;;;;;7.35;4.95;;;;;;;14.70;44.59;97387.84;5049539;28;20028;-76
2023/02/01 11:31:09;;;;;;;11.00;5.65;;;;;;;15.46;43.64;97409.31;5056423;28;20051;-75
2023/02/01 11:33:37;;;;;;;7.72;4.80;;;;;;;15.91;42.94;97392.94;5061361;28;20048;-74
2023/02/01 11:36:08;;;;;;;11.25;5.72;;;;;;;15.39;42.63;97365.00;5062785;28;20102;-75
2023/02/01 11:38:34;;;;;;;12.30;4.97;;;;;;;14.75;44.25;97360.53;5048752;28;20035;-73
2023/02/01 11:41:22;;;;;;;12.63;5.55;;;;;;;14.83;42.98;97356.22;5077353;28;20526;-82
2023/02/01 11:44:02;;;;;;;10.80;5.15;;;;;;;15.61;42.89;97364.94;5040989;28;20028;-77
2023/02/01 11:46:32;;;;;;;13.18;6.57;;;;;;;16.01;43.06;97356.97;5041680;28;20491;-77
2023/02/01 11:49:23;;;;;;;10.02;4.85;;;;;;;16.44;41.72;97345.09;5062422;28;20050;-76
2023/02/01 11:51:55;;;;;;;7.30;3.88;;;;;;;16.42;39.81;97315.53;5042565;28;20119;-74
2023/02/01 11:54:48;;;;;;;11.38;5.65;;;;;;;15.85;40.60;97294.53;5039293;28;20623;-76
2023/02/01 11:57:16;;;;;;;11.43;4.25;;;;;;;16.23;41.23;97315.47;5061872;28;20078;-75
2023/02/01 12:00:12;;;;;;;7.00;3.33;;;;;;;16.48;39.37;97293.38;5061196;28;20472;-74
2023/02/01 12:02:44;;;;;;;7.35;3.67;;;;;;;16.89;37.78;97292.34;5075802;28;20192;-75
2023/02/01 12:05:22;;;;;;;6.85;3.67;;;;;;;16.64;38.14;97274.81;5065558;28;20130;-74